createdAt,value
2018-12-24T00:02:19.311Z,91.70
2018-12-24T00:04:48.088Z,91.80
2018-12-24T00:07:16.756Z,91.50
2018-12-24T00:09:45.265Z,91.40
2018-12-24T00:12:13.781Z,91.40
2018-12-24T00:14:42.732Z,91.30
2018-12-24T00:17:12.038Z,91.10
2018-12-24T00:19:40.571Z,91.20
2018-12-24T00:22:09.114Z,90.90
2018-12-24T00:24:37.858Z,90.90
2018-12-24T00:27:07.035Z,90.80
2018-12-24T00:29:35.864Z,90.90
2018-12-24T00:32:04.413Z,90.80
2018-12-24T00:34:33.025Z,91.00
2018-12-24T00:37:01.558Z,91.10
2018-12-24T00:39:30.564Z,91.30
2018-12-24T00:41:59.583Z,91.40
2018-12-24T00:44:28.176Z,91.40
2018-12-24T00:46:57.114Z,91.40
2018-12-24T00:49:25.682Z,91.80
2018-12-24T00:51:54.808Z,92.10
2018-12-24T00:54:23.611Z,92.20
2018-12-24T00:56:52.432Z,92.30
2018-12-24T00:59:21.221Z,92.50
2018-12-24T01:01:49.733Z,92.40
2018-12-24T01:04:18.548Z,92.30
2018-12-24T01:06:47.245Z,92.40
2018-12-24T01:09:16.507Z,92.40
2018-12-24T01:11:45.082Z,92.60
2018-12-24T01:14:13.826Z,92.30
2018-12-24T01:16:42.414Z,92.10
2018-12-24T01:19:11.095Z,92.20
2018-12-24T01:22:31.579Z,91.60
2018-12-24T01:25:12.148Z,91.80
2018-12-24T01:27:53.217Z,92.10
2018-12-24T01:30:33.970Z,91.80
2018-12-24T01:33:14.164Z,91.70
2018-12-24T01:36:01.633Z,91.80
2018-12-24T01:41:22.787Z,91.90
2018-12-24T01:44:03.780Z,91.90
2018-12-24T01:46:51.270Z,92.00
2018-12-24T01:52:12.915Z,91.60
2018-12-24T01:54:54.008Z,91.50
2018-12-24T01:57:35.032Z,91.50
2018-12-24T02:00:15.350Z,91.70
2018-12-24T02:02:56.324Z,91.60
2018-12-24T02:05:37.438Z,91.50
2018-12-24T02:08:17.525Z,92.20
2018-12-24T02:10:57.677Z,91.90
2018-12-24T02:13:37.831Z,92.30
2018-12-24T02:16:25.337Z,92.50
2018-12-24T02:19:06.127Z,93.30
2018-12-24T02:21:46.226Z,79.40
2018-12-24T02:24:26.551Z,84.50
2018-12-24T02:27:07.321Z,83.50
2018-12-24T02:29:47.465Z,86.70
2018-12-24T02:32:27.620Z,91.70
2018-12-24T02:35:08.660Z,92.30
2018-12-24T02:40:29.863Z,92.40
2018-12-24T02:43:09.916Z,92.20
2018-12-24T02:45:51.233Z,92.60
2018-12-24T02:48:31.997Z,92.50
2018-12-24T02:51:12.288Z,92.30
2018-12-24T02:56:33.808Z,92.00
2018-12-24T02:59:14.847Z,91.60
2018-12-24T03:01:55.038Z,91.50
2018-12-24T03:04:35.359Z,91.80
2018-12-24T03:07:15.457Z,92.10
2018-12-24T03:09:55.549Z,91.10
2018-12-24T03:12:36.442Z,91.80
2018-12-24T03:15:16.578Z,92.40
2018-12-24T03:17:56.706Z,91.40
2018-12-24T03:20:37.769Z,91.00
2018-12-24T03:23:18.746Z,91.00
2018-12-24T03:25:59.309Z,90.90
2018-12-24T03:36:40.413Z,91.10
2018-12-24T03:39:21.144Z,91.60
2018-12-24T03:42:02.261Z,92.10
2018-12-24T03:44:43.232Z,92.00
2018-12-24T03:47:23.398Z,92.20
2018-12-24T03:52:44.265Z,92.60
2018-12-24T03:55:24.467Z,93.10
2018-12-24T03:58:05.295Z,92.60
2018-12-24T04:00:46.307Z,91.70
2018-12-24T04:03:26.529Z,92.00
2018-12-24T04:06:07.751Z,88.90
2018-12-24T04:08:48.713Z,88.80
2018-12-24T04:11:29.977Z,89.70
2018-12-24T04:14:10.908Z,89.60
2018-12-24T04:19:32.081Z,88.10
2018-12-24T04:22:13.104Z,89.30
2018-12-24T04:24:53.986Z,89.70
2018-12-24T04:27:41.754Z,90.50
2018-12-24T04:30:17.589Z,90.80
2018-12-24T04:35:38.530Z,90.70
2018-12-24T04:38:19.730Z,91.50
2018-12-24T04:41:00.767Z,92.20
2018-12-24T04:43:41.931Z,91.70
2018-12-24T04:46:22.934Z,91.50
2018-12-24T04:49:02.986Z,91.70
2018-12-24T04:51:43.325Z,91.60
2018-12-24T04:59:44.192Z,91.60
2018-12-24T05:02:24.547Z,91.40
2018-12-24T05:07:45.674Z,91.10
2018-12-24T05:10:26.542Z,91.40
2018-12-24T05:13:06.709Z,91.00
2018-12-24T05:15:47.629Z,91.60
2018-12-24T05:18:29.323Z,91.60
2018-12-24T05:21:11.006Z,89.80
2018-12-24T05:23:51.673Z,89.50
2018-12-24T05:26:32.847Z,89.00
2018-12-24T05:31:53.964Z,90.50
2018-12-24T05:37:15.131Z,86.80
2018-12-24T05:39:55.181Z,89.20
2018-12-24T05:42:35.345Z,85.60
2018-12-24T05:53:16.931Z,85.20
2018-12-24T05:58:45.140Z,85.00
2018-12-24T06:04:06.133Z,85.20
2018-12-24T06:06:46.856Z,86.00
2018-12-24T06:09:27.448Z,86.80
2018-12-24T06:12:07.738Z,86.10
2018-12-24T06:14:49.164Z,87.80
2018-12-24T06:17:30.099Z,85.90
2018-12-24T06:20:11.175Z,86.10
2018-12-24T06:22:51.259Z,87.70
2018-12-24T06:25:31.446Z,87.40
2018-12-24T06:28:12.521Z,85.00
2018-12-24T06:30:54.015Z,85.90
2018-12-24T06:33:34.775Z,85.50
2018-12-24T06:36:16.058Z,85.30
2018-12-24T06:41:37.775Z,85.30
2018-12-24T06:44:18.193Z,86.50
2018-12-24T06:47:05.646Z,84.60
2018-12-24T06:49:46.082Z,84.60
2018-12-24T06:52:26.194Z,86.20
2018-12-24T06:55:06.544Z,86.00
2018-12-24T06:57:47.588Z,85.50
2018-12-24T07:00:28.607Z,84.60
2018-12-24T07:03:08.876Z,85.50
2018-12-24T07:05:50.008Z,85.30
2018-12-24T07:08:31.014Z,86.60
2018-12-24T07:11:11.126Z,87.30
2018-12-24T07:13:52.065Z,88.10
2018-12-24T07:16:33.004Z,86.40
2018-12-24T07:19:13.317Z,87.20
2018-12-24T07:21:53.520Z,87.30
2018-12-24T07:24:33.768Z,87.10
2018-12-24T07:27:14.000Z,87.70
2018-12-24T07:29:55.370Z,87.20
2018-12-24T07:32:36.327Z,85.60
2018-12-24T07:35:17.449Z,85.90
2018-12-24T07:40:38.024Z,86.10
2018-12-24T07:43:19.225Z,82.30
2018-12-24T07:46:00.201Z,80.90
2018-12-24T07:48:47.696Z,80.60
2018-12-24T07:51:30.718Z,81.30
2018-12-24T07:54:11.382Z,80.00
2018-12-24T07:56:52.726Z,80.00
2018-12-24T07:59:33.672Z,80.20
2018-12-24T08:02:13.763Z,81.60
2018-12-24T08:04:55.646Z,77.80
2018-12-24T08:07:36.503Z,78.60
2018-12-24T08:10:17.363Z,78.30
2018-12-24T08:15:39.709Z,78.10
2018-12-24T08:18:28.508Z,76.50
2018-12-24T08:21:32.295Z,77.40
2018-12-24T08:24:13.698Z,77.40
2018-12-24T08:26:55.705Z,78.60
2018-12-24T08:29:36.566Z,77.50
2018-12-24T08:34:57.977Z,75.90
2018-12-24T08:37:39.303Z,76.40
2018-12-24T08:43:01.504Z,75.00
2018-12-24T08:48:24.174Z,75.90
2018-12-24T08:51:05.231Z,76.60
2018-12-24T08:53:45.371Z,76.10
2018-12-24T08:56:25.558Z,77.00
2018-12-24T08:59:05.685Z,77.60
2018-12-24T09:01:47.092Z,78.70
2018-12-24T09:12:29.016Z,79.00
2018-12-24T09:15:10.154Z,80.20
2018-12-24T09:17:57.663Z,80.50
2018-12-24T09:20:38.626Z,79.90
2018-12-24T09:23:20.459Z,80.50
2018-12-24T09:26:01.017Z,78.80
2018-12-24T09:28:42.028Z,78.50
2018-12-24T09:31:23.381Z,79.40
2018-12-24T09:34:04.295Z,80.10
2018-12-24T09:36:52.076Z,80.00
2018-12-24T09:39:32.480Z,80.20
2018-12-24T09:42:12.725Z,81.10
2018-12-24T09:44:58.937Z,81.10
2018-12-24T09:47:36.077Z,80.80
2018-12-24T09:50:16.879Z,80.00
2018-12-24T09:52:58.186Z,81.60
2018-12-24T09:58:19.418Z,80.10
2018-12-24T10:00:59.562Z,80.20
2018-12-24T10:03:42.654Z,82.00
2018-12-24T10:06:33.974Z,80.30
2018-12-24T10:09:14.992Z,75.00
2018-12-24T10:11:55.521Z,75.90
2018-12-24T10:14:36.177Z,75.00
2018-12-24T10:17:17.276Z,75.30
2018-12-24T10:19:57.580Z,75.00
2018-12-24T10:22:38.580Z,72.80
2018-12-24T10:25:18.672Z,70.80
2018-12-24T10:30:40.414Z,67.40
2018-12-24T10:33:21.144Z,67.80
2018-12-24T10:36:02.269Z,66.40
2018-12-24T10:38:43.348Z,67.20
2018-12-24T10:41:25.218Z,67.60
2018-12-24T10:44:07.748Z,69.20
2018-12-24T10:46:48.602Z,69.80
2018-12-24T10:49:28.935Z,70.90
2018-12-24T10:54:49.935Z,73.60
2018-12-24T10:57:30.014Z,71.20
2018-12-24T11:00:11.205Z,72.20
2018-12-24T11:02:52.395Z,73.40
2018-12-24T11:05:33.311Z,73.20
2018-12-24T11:08:13.871Z,74.90
2018-12-24T11:10:54.316Z,74.70
2018-12-24T11:13:35.150Z,72.80
2018-12-24T11:16:15.217Z,74.10
2018-12-24T11:18:55.263Z,73.70
2018-12-24T11:21:36.442Z,74.00
2018-12-24T11:24:17.898Z,71.90
2018-12-24T11:29:38.797Z,71.60
2018-12-24T11:32:18.979Z,72.30
2018-12-24T11:35:06.511Z,71.50
2018-12-24T11:37:47.221Z,69.70
2018-12-24T11:40:27.426Z,72.40
2018-12-24T11:43:08.645Z,73.70
2018-12-24T11:45:50.213Z,73.20
2018-12-24T11:48:30.663Z,72.30
2018-12-24T11:51:10.718Z,73.00
2018-12-24T11:53:51.081Z,73.50
2018-12-24T11:56:31.580Z,75.00
2018-12-24T11:59:12.419Z,76.10
2018-12-24T12:04:33.667Z,78.00
2018-12-24T12:07:15.055Z,78.50
2018-12-24T12:12:36.435Z,76.50
2018-12-24T12:15:16.715Z,76.10
2018-12-24T12:17:56.933Z,77.60
2018-12-24T12:20:37.174Z,77.00
2018-12-24T12:23:18.165Z,79.20
2018-12-24T12:25:58.296Z,77.00
2018-12-24T12:28:38.446Z,75.90
2018-12-24T12:31:18.512Z,75.20
2018-12-24T12:33:58.634Z,76.10
2018-12-24T12:36:40.678Z,76.00
2018-12-24T12:39:21.040Z,73.80
2018-12-24T12:42:01.171Z,74.90
2018-12-24T12:44:41.244Z,76.50
2018-12-24T12:47:22.407Z,74.40
2018-12-24T12:50:03.396Z,75.80
2018-12-24T12:52:44.425Z,76.60
2018-12-24T12:55:25.555Z,77.10
2018-12-24T12:58:06.466Z,77.20
2018-12-24T13:03:27.802Z,76.10
2018-12-24T13:06:15.665Z,76.10
2018-12-24T13:08:55.898Z,76.60
2018-12-24T13:11:36.998Z,77.80
2018-12-24T13:14:17.993Z,78.40
2018-12-24T13:16:58.868Z,76.60
2018-12-24T13:19:39.719Z,75.50
2018-12-24T13:22:20.791Z,76.80
2018-12-24T13:25:00.865Z,75.00
2018-12-24T13:27:41.899Z,76.50
2018-12-24T13:30:23.782Z,75.90
2018-12-24T13:33:04.043Z,71.70
2018-12-24T13:35:51.836Z,71.00
2018-12-24T13:38:31.876Z,72.50
2018-12-24T13:41:12.853Z,65.40
2018-12-24T13:43:53.084Z,67.30
2018-12-24T13:46:33.163Z,70.00
2018-12-24T13:49:14.079Z,69.70
2018-12-24T13:51:54.308Z,71.00
2018-12-24T13:54:34.354Z,73.40
2018-12-24T13:57:14.801Z,74.40
2018-12-24T13:59:55.844Z,72.80
2018-12-24T14:02:36.825Z,71.90
2018-12-24T14:05:17.728Z,69.40
2018-12-24T14:07:57.859Z,70.80
2018-12-24T14:10:37.933Z,67.20
2018-12-24T14:13:18.942Z,59.10
2018-12-24T14:15:59.280Z,55.20
2018-12-24T14:18:39.498Z,48.30
2018-12-24T14:21:07.511Z,49.10
2018-12-24T14:23:35.574Z,50.80
2018-12-24T14:26:03.879Z,52.90
2018-12-24T14:28:32.084Z,62.80
2018-12-24T14:31:00.086Z,63.60
2018-12-24T14:33:28.626Z,64.70
2018-12-24T14:35:57.174Z,66.20
2018-12-24T14:38:25.176Z,67.60
2018-12-24T14:40:53.229Z,68.30
2018-12-24T14:43:21.451Z,66.50
2018-12-24T14:45:49.457Z,66.20
2018-12-24T14:48:17.659Z,68.90
2018-12-24T14:50:47.375Z,70.40
2018-12-24T14:53:15.849Z,71.50
2018-12-24T14:55:44.050Z,70.60
2018-12-24T14:58:12.449Z,70.90
2018-12-24T15:00:40.710Z,70.00
2018-12-24T15:03:09.182Z,72.20
2018-12-24T15:05:37.130Z,71.50
2018-12-24T15:08:05.176Z,71.50
2018-12-24T15:10:33.643Z,72.30
2018-12-24T15:13:01.664Z,73.00
2018-12-24T15:15:29.875Z,74.40
2018-12-24T15:17:58.331Z,75.10
2018-12-24T15:20:26.577Z,75.00
2018-12-24T15:22:54.576Z,75.80
2018-12-24T15:25:22.567Z,74.80
2018-12-24T15:27:50.790Z,75.50
2018-12-24T15:30:18.755Z,75.70
2018-12-24T15:32:47.230Z,75.80
2018-12-24T15:35:15.709Z,77.00
2018-12-24T15:37:43.926Z,75.70
2018-12-24T15:40:12.204Z,76.40
2018-12-24T15:42:40.323Z,75.00
2018-12-24T15:45:08.316Z,73.20
2018-12-24T15:47:36.423Z,75.60
2018-12-24T15:50:04.577Z,72.80
2018-12-24T15:52:32.522Z,73.20
2018-12-24T15:55:00.597Z,73.80
2018-12-24T15:57:28.564Z,73.80
2018-12-24T15:59:57.338Z,73.30
2018-12-24T16:02:25.625Z,73.80
2018-12-24T16:04:53.901Z,75.30
2018-12-24T16:07:21.886Z,75.70
2018-12-24T16:09:50.147Z,76.00
2018-12-24T16:12:19.254Z,73.40
2018-12-24T16:14:47.476Z,73.60
2018-12-24T16:17:15.967Z,73.50
2018-12-24T16:19:44.200Z,72.40
2018-12-24T16:22:12.419Z,73.80
2018-12-24T16:24:40.675Z,73.40
2018-12-24T16:27:08.642Z,72.40
2018-12-24T16:29:36.609Z,73.30
2018-12-24T16:32:04.558Z,73.40
2018-12-24T16:34:32.583Z,74.40
2018-12-24T16:37:00.586Z,75.40
2018-12-24T16:39:28.596Z,76.20
2018-12-24T16:41:56.795Z,76.40
2018-12-24T16:44:24.835Z,77.60
2018-12-24T16:46:59.322Z,78.80
2018-12-24T16:49:25.422Z,77.90
2018-12-24T16:51:53.372Z,78.70
2018-12-24T16:54:21.998Z,79.10
2018-12-24T16:56:50.075Z,79.70
2018-12-24T16:59:18.336Z,80.60
2018-12-24T17:01:46.693Z,80.30
2018-12-24T17:04:15.949Z,81.50
2018-12-24T17:06:44.028Z,81.20
2018-12-24T17:09:11.990Z,81.90
2018-12-24T17:11:39.929Z,81.20
2018-12-24T17:14:08.411Z,81.80
2018-12-24T17:16:36.698Z,82.40
2018-12-24T17:19:04.727Z,82.30
2018-12-24T17:21:33.170Z,81.10
2018-12-24T17:24:01.171Z,81.40
2018-12-24T17:26:29.169Z,80.40
2018-12-24T17:28:57.179Z,81.20
2018-12-24T17:31:25.390Z,80.10
2018-12-24T17:33:53.492Z,79.40
2018-12-24T17:36:21.814Z,79.00
2018-12-24T17:38:49.831Z,78.40
2018-12-24T17:41:17.873Z,77.70
2018-12-24T17:43:45.915Z,77.70
2018-12-24T17:46:13.923Z,77.00
2018-12-24T17:48:42.157Z,77.40
2018-12-24T17:51:10.522Z,77.40
2018-12-24T17:53:38.902Z,76.10
2018-12-24T17:56:07.084Z,77.70
2018-12-24T17:58:35.210Z,76.80
2018-12-24T18:01:04.112Z,76.20
2018-12-24T18:03:36.168Z,76.60
2018-12-24T18:06:07.384Z,76.00
2018-12-24T18:08:35.953Z,76.50
2018-12-24T18:11:04.383Z,76.70
2018-12-24T18:13:32.748Z,77.00
2018-12-24T18:16:00.977Z,76.40
2018-12-24T18:18:29.496Z,75.50
2018-12-24T18:20:57.530Z,76.10
2018-12-24T18:23:25.712Z,77.30
2018-12-24T18:25:53.931Z,77.10
2018-12-24T18:28:22.191Z,77.20
2018-12-24T18:30:50.365Z,77.60
2018-12-24T18:33:18.324Z,77.80
2018-12-24T18:35:46.612Z,78.00
2018-12-24T18:38:14.614Z,77.90
2018-12-24T18:40:42.768Z,77.90
2018-12-24T18:43:10.854Z,77.70
2018-12-24T18:45:39.622Z,78.20
2018-12-24T18:48:07.791Z,77.10
2018-12-24T18:50:36.671Z,77.10
2018-12-24T18:53:04.822Z,77.70
2018-12-24T18:55:32.787Z,79.20
2018-12-24T18:58:01.190Z,77.10
2018-12-24T19:00:29.406Z,77.40
2018-12-24T19:02:57.634Z,76.30
2018-12-24T19:05:25.915Z,76.30
2018-12-24T19:07:53.952Z,77.80
2018-12-24T19:10:21.983Z,77.20
2018-12-24T19:12:50.171Z,76.70
2018-12-24T19:15:18.271Z,76.40
2018-12-24T19:17:46.778Z,75.30
2018-12-24T19:20:14.747Z,76.00
2018-12-24T19:22:43.054Z,75.70
2018-12-24T19:25:11.291Z,76.50
2018-12-24T19:27:39.550Z,76.60
2018-12-24T19:30:08.805Z,76.40
2018-12-24T19:32:37.232Z,76.60
2018-12-24T19:35:05.126Z,75.90
2018-12-24T19:37:33.405Z,77.20
2018-12-24T19:40:01.439Z,76.80
2018-12-24T19:42:29.441Z,76.50
2018-12-24T19:44:57.485Z,76.90
2018-12-24T19:47:25.454Z,77.10
2018-12-24T19:49:53.489Z,77.10
2018-12-24T19:52:21.897Z,77.00
2018-12-24T19:54:49.890Z,77.40
2018-12-24T19:57:18.035Z,76.80
2018-12-24T19:59:46.388Z,76.90
2018-12-24T20:02:14.342Z,76.80
2018-12-24T20:04:43.032Z,78.10
2018-12-24T20:07:11.373Z,77.70
2018-12-24T20:09:39.727Z,76.80
2018-12-24T20:12:07.997Z,76.10
2018-12-24T20:14:36.060Z,76.60
2018-12-24T20:17:04.280Z,76.40
2018-12-24T20:19:32.577Z,75.40
2018-12-24T20:22:00.719Z,75.80
2018-12-24T20:24:29.391Z,75.90
2018-12-24T20:26:57.371Z,75.80
2018-12-24T20:29:25.310Z,75.20
2018-12-24T20:31:53.371Z,75.30
2018-12-24T20:34:21.458Z,75.50
2018-12-24T20:36:49.453Z,74.80
2018-12-24T20:39:17.550Z,75.10
2018-12-24T20:41:45.498Z,74.60
2018-12-24T20:44:13.463Z,75.50
2018-12-24T20:46:41.397Z,76.00
2018-12-24T20:49:09.338Z,76.10
2018-12-24T20:51:37.304Z,76.10
2018-12-24T20:54:05.247Z,75.50
2018-12-24T20:56:33.806Z,76.00
2018-12-24T20:59:01.760Z,74.90
2018-12-24T21:01:29.772Z,75.60
2018-12-24T21:03:59.623Z,74.90
2018-12-24T21:06:28.484Z,74.50
2018-12-24T21:08:56.516Z,74.00
2018-12-24T21:11:24.844Z,74.10
2018-12-24T21:13:53.028Z,74.20
2018-12-24T21:16:21.000Z,73.90
2018-12-24T21:18:49.238Z,73.50
2018-12-24T21:21:17.319Z,73.60
2018-12-24T21:23:45.419Z,73.10
2018-12-24T21:26:13.884Z,73.40
2018-12-24T21:28:41.872Z,73.10
2018-12-24T21:31:10.131Z,73.50
2018-12-24T21:33:38.120Z,73.60
2018-12-24T21:36:06.105Z,73.00
2018-12-24T21:38:34.212Z,72.70
2018-12-24T21:41:02.146Z,72.50
2018-12-24T21:43:30.106Z,72.80
2018-12-24T21:45:58.114Z,73.40
2018-12-24T21:48:26.724Z,72.20
2018-12-24T21:50:54.970Z,72.90
2018-12-24T21:53:23.067Z,73.10
2018-12-24T21:55:52.788Z,73.30
2018-12-24T21:58:21.155Z,73.20
2018-12-24T22:00:49.135Z,73.30
2018-12-24T22:03:17.100Z,73.40
2018-12-24T22:05:45.054Z,73.40
2018-12-24T22:08:13.253Z,73.60
2018-12-24T22:10:41.444Z,73.70
2018-12-24T22:13:09.418Z,73.30
2018-12-24T22:15:37.349Z,73.50
2018-12-24T22:18:06.324Z,73.60
2018-12-24T22:20:34.309Z,73.60
2018-12-24T22:23:02.477Z,73.40
2018-12-24T22:25:30.548Z,73.60
2018-12-24T22:27:58.515Z,73.60
2018-12-24T22:30:26.488Z,74.60
2018-12-24T22:32:54.561Z,74.20
2018-12-24T22:35:22.731Z,74.30
2018-12-24T22:37:50.787Z,74.30
2018-12-24T22:40:18.778Z,74.30
2018-12-24T22:42:46.714Z,74.20
2018-12-24T22:45:14.856Z,74.40
2018-12-24T22:47:43.163Z,74.60
2018-12-24T22:50:11.088Z,74.80
2018-12-24T22:52:39.093Z,74.90
2018-12-24T22:55:07.028Z,74.80
2018-12-24T22:57:35.000Z,74.70
2018-12-24T23:00:03.890Z,75.00
2018-12-24T23:02:31.932Z,74.70
2018-12-24T23:04:59.840Z,74.70
2018-12-24T23:07:28.022Z,74.70
2018-12-24T23:09:56.481Z,74.80
2018-12-24T23:12:24.431Z,75.20
2018-12-24T23:14:52.663Z,75.50
2018-12-24T23:17:20.874Z,75.70
2018-12-24T23:19:48.887Z,75.80
2018-12-24T23:22:17.159Z,75.70
2018-12-24T23:24:45.166Z,77.40
2018-12-24T23:27:13.161Z,76.10
2018-12-24T23:29:41.444Z,76.60
2018-12-24T23:32:09.380Z,77.10
2018-12-24T23:34:37.415Z,76.70
2018-12-24T23:37:05.421Z,77.30
2018-12-24T23:39:33.363Z,77.50
2018-12-24T23:42:01.836Z,77.60
2018-12-24T23:44:30.043Z,77.30
2018-12-24T23:46:57.980Z,77.80
2018-12-24T23:49:25.952Z,78.00
2018-12-24T23:51:53.868Z,77.70
2018-12-24T23:54:22.091Z,77.60
2018-12-24T23:56:50.289Z,77.60
2018-12-24T23:59:18.228Z,77.60
